sensor_id;sensor_type;location;lat;lon;timestamp;temperature;humidity
68385;DHT22;55336;43.062;25.626;2022-07-17T00:00:36;19.30;99.90
68385;DHT22;55336;43.062;25.626;2022-07-17T00:03:05;19.30;99.90
68385;DHT22;55336;43.062;25.626;2022-07-17T00:05:31;19.20;99.90
68385;DHT22;55336;43.062;25.626;2022-07-17T00:07:57;19.20;99.90
68385;DHT22;55336;43.062;25.626;2022-07-17T00:10:22;19.10;99.90
68385;DHT22;55336;43.062;25.626;2022-07-17T00:12:48;19.10;99.90
68385;DHT22;55336;43.062;25.626;2022-07-17T00:15:14;19.00;99.90
68385;DHT22;55336;43.062;25.626;2022-07-17T00:17:40;18.90;99.90
68385;DHT22;55336;43.062;25.626;2022-07-17T00:20:06;18.90;99.90
68385;DHT22;55336;43.062;25.626;2022-07-17T00:22:33;18.80;99.90
68385;DHT22;55336;43.062;25.626;2022-07-17T00:24:58;18.70;99.90
68385;DHT22;55336;43.062;25.626;2022-07-17T00:27:24;18.70;99.90
68385;DHT22;55336;43.062;25.626;2022-07-17T00:29:50;18.70;99.90
68385;DHT22;55336;43.062;25.626;2022-07-17T00:32:16;18.70;99.90
68385;DHT22;55336;43.062;25.626;2022-07-17T00:34:42;18.60;99.90
68385;DHT22;55336;43.062;25.626;2022-07-17T00:37:07;18.50;99.90
68385;DHT22;55336;43.062;25.626;2022-07-17T00:39:33;18.40;99.90
68385;DHT22;55336;43.062;25.626;2022-07-17T00:41:59;18.40;99.90
68385;DHT22;55336;43.062;25.626;2022-07-17T00:44:25;18.40;99.90
68385;DHT22;55336;43.062;25.626;2022-07-17T00:46:51;18.30;99.90
68385;DHT22;55336;43.062;25.626;2022-07-17T00:49:17;18.20;99.90
68385;DHT22;55336;43.062;25.626;2022-07-17T00:51:43;18.30;99.90
68385;DHT22;55336;43.062;25.626;2022-07-17T00:54:09;18.20;99.90
68385;DHT22;55336;43.062;25.626;2022-07-17T00:56:37;18.20;99.90
68385;DHT22;55336;43.062;25.626;2022-07-17T00:59:02;18.10;99.90
68385;DHT22;55336;43.062;25.626;2022-07-17T01:01:30;18.10;99.90
68385;DHT22;55336;43.062;25.626;2022-07-17T01:03:56;18.10;99.90
68385;DHT22;55336;43.062;25.626;2022-07-17T01:06:22;18.10;99.90
68385;DHT22;55336;43.062;25.626;2022-07-17T01:08:47;18.10;99.90
68385;DHT22;55336;43.062;25.626;2022-07-17T01:11:13;18.10;99.90
68385;DHT22;55336;43.062;25.626;2022-07-17T01:13:39;18.10;99.90
68385;DHT22;55336;43.062;25.626;2022-07-17T01:16:08;18.10;99.90
68385;DHT22;55336;43.062;25.626;2022-07-17T01:18:34;18.10;99.90
68385;DHT22;55336;43.062;25.626;2022-07-17T01:21:04;18.00;99.90
68385;DHT22;55336;43.062;25.626;2022-07-17T01:23:30;18.00;99.90
68385;DHT22;55336;43.062;25.626;2022-07-17T01:25:55;18.00;99.90
68385;DHT22;55336;43.062;25.626;2022-07-17T01:28:21;18.00;99.90
68385;DHT22;55336;43.062;25.626;2022-07-17T01:30:48;18.00;99.90
68385;DHT22;55336;43.062;25.626;2022-07-17T01:33:14;17.80;99.90
68385;DHT22;55336;43.062;25.626;2022-07-17T01:35:40;17.90;99.90
68385;DHT22;55336;43.062;25.626;2022-07-17T01:38:06;17.90;99.90
68385;DHT22;55336;43.062;25.626;2022-07-17T01:40:31;17.90;99.90
68385;DHT22;55336;43.062;25.626;2022-07-17T01:42:57;17.90;99.90
68385;DHT22;55336;43.062;25.626;2022-07-17T01:45:23;17.90;99.90
68385;DHT22;55336;43.062;25.626;2022-07-17T01:47:48;17.90;99.90
68385;DHT22;55336;43.062;25.626;2022-07-17T01:50:15;17.90;99.90
68385;DHT22;55336;43.062;25.626;2022-07-17T01:52:42;17.90;99.90
68385;DHT22;55336;43.062;25.626;2022-07-17T01:55:08;17.90;99.90
68385;DHT22;55336;43.062;25.626;2022-07-17T01:57:35;17.90;99.90
68385;DHT22;55336;43.062;25.626;2022-07-17T02:00:02;18.00;99.90
68385;DHT22;55336;43.062;25.626;2022-07-17T02:02:29;17.90;99.90
68385;DHT22;55336;43.062;25.626;2022-07-17T02:04:54;17.90;99.90
68385;DHT22;55336;43.062;25.626;2022-07-17T02:07:20;17.90;99.90
68385;DHT22;55336;43.062;25.626;2022-07-17T02:09:46;17.80;99.90
68385;DHT22;55336;43.062;25.626;2022-07-17T02:12:12;17.80;99.90
68385;DHT22;55336;43.062;25.626;2022-07-17T02:14:37;17.70;99.90
68385;DHT22;55336;43.062;25.626;2022-07-17T02:17:03;17.70;99.90
68385;DHT22;55336;43.062;25.626;2022-07-17T02:19:29;17.60;99.90
68385;DHT22;55336;43.062;25.626;2022-07-17T02:21:55;17.60;99.90
68385;DHT22;55336;43.062;25.626;2022-07-17T02:24:20;17.60;99.90
68385;DHT22;55336;43.062;25.626;2022-07-17T02:26:46;17.60;99.90
68385;DHT22;55336;43.062;25.626;2022-07-17T02:29:12;17.50;99.90
68385;DHT22;55336;43.062;25.626;2022-07-17T02:31:38;17.50;99.90
68385;DHT22;55336;43.062;25.626;2022-07-17T02:34:03;17.40;99.90
68385;DHT22;55336;43.062;25.626;2022-07-17T02:36:29;17.40;99.90
68385;DHT22;55336;43.062;25.626;2022-07-17T02:38:56;17.30;99.90
68385;DHT22;55336;43.062;25.626;2022-07-17T02:41:21;17.30;99.90
68385;DHT22;55336;43.062;25.626;2022-07-17T02:43:48;17.20;99.90
68385;DHT22;55336;43.062;25.626;2022-07-17T02:46:14;17.20;99.90
68385;DHT22;55336;43.062;25.626;2022-07-17T02:48:40;17.10;99.90
68385;DHT22;55336;43.062;25.626;2022-07-17T02:51:06;17.10;99.90
68385;DHT22;55336;43.062;25.626;2022-07-17T02:53:32;17.00;99.90
68385;DHT22;55336;43.062;25.626;2022-07-17T02:55:58;17.00;99.90
68385;DHT22;55336;43.062;25.626;2022-07-17T02:58:23;17.00;99.90
68385;DHT22;55336;43.062;25.626;2022-07-17T03:00:49;17.00;99.90
68385;DHT22;55336;43.062;25.626;2022-07-17T03:03:15;17.00;99.90
68385;DHT22;55336;43.062;25.626;2022-07-17T03:05:41;16.90;99.90
68385;DHT22;55336;43.062;25.626;2022-07-17T03:08:07;16.80;99.90
68385;DHT22;55336;43.062;25.626;2022-07-17T03:10:32;16.90;99.90
68385;DHT22;55336;43.062;25.626;2022-07-17T03:12:58;16.90;99.90
68385;DHT22;55336;43.062;25.626;2022-07-17T03:15:24;16.80;99.90
68385;DHT22;55336;43.062;25.626;2022-07-17T03:17:50;16.80;99.90
68385;DHT22;55336;43.062;25.626;2022-07-17T03:20:15;16.80;99.90
68385;DHT22;55336;43.062;25.626;2022-07-17T03:22:41;16.80;99.90
68385;DHT22;55336;43.062;25.626;2022-07-17T03:25:07;16.70;99.90
68385;DHT22;55336;43.062;25.626;2022-07-17T03:27:33;16.80;99.90
68385;DHT22;55336;43.062;25.626;2022-07-17T03:29:59;16.80;99.90
68385;DHT22;55336;43.062;25.626;2022-07-17T03:32:25;16.40;99.90
68385;DHT22;55336;43.062;25.626;2022-07-17T03:34:51;17.00;99.90
68385;DHT22;55336;43.062;25.626;2022-07-17T03:37:17;17.20;99.90
68385;DHT22;55336;43.062;25.626;2022-07-17T03:39:42;17.40;99.90
68385;DHT22;55336;43.062;25.626;2022-07-17T03:42:08;17.50;99.90
68385;DHT22;55336;43.062;25.626;2022-07-17T03:44:36;17.70;99.90
68385;DHT22;55336;43.062;25.626;2022-07-17T03:47:02;17.90;99.90
68385;DHT22;55336;43.062;25.626;2022-07-17T03:49:27;18.00;99.90
68385;DHT22;55336;43.062;25.626;2022-07-17T03:51:53;18.20;99.90
68385;DHT22;55336;43.062;25.626;2022-07-17T03:54:19;18.30;99.90
68385;DHT22;55336;43.062;25.626;2022-07-17T03:56:45;18.40;99.90
68385;DHT22;55336;43.062;25.626;2022-07-17T03:59:11;18.50;99.90
68385;DHT22;55336;43.062;25.626;2022-07-17T04:01:36;18.00;99.90
68385;DHT22;55336;43.062;25.626;2022-07-17T04:04:02;18.60;99.90
68385;DHT22;55336;43.062;25.626;2022-07-17T04:06:28;18.50;99.90
68385;DHT22;55336;43.062;25.626;2022-07-17T04:08:54;18.50;99.90
68385;DHT22;55336;43.062;25.626;2022-07-17T04:11:19;18.60;99.90
68385;DHT22;55336;43.062;25.626;2022-07-17T04:13:46;18.60;99.90
68385;DHT22;55336;43.062;25.626;2022-07-17T04:16:11;18.60;99.90
68385;DHT22;55336;43.062;25.626;2022-07-17T04:18:37;18.70;99.90
68385;DHT22;55336;43.062;25.626;2022-07-17T04:21:06;18.80;99.90
68385;DHT22;55336;43.062;25.626;2022-07-17T04:23:32;18.90;99.90
68385;DHT22;55336;43.062;25.626;2022-07-17T04:25:58;19.10;99.90
68385;DHT22;55336;43.062;25.626;2022-07-17T04:28:24;19.30;99.90
68385;DHT22;55336;43.062;25.626;2022-07-17T04:30:50;19.40;99.90
68385;DHT22;55336;43.062;25.626;2022-07-17T04:33:16;19.70;99.90
68385;DHT22;55336;43.062;25.626;2022-07-17T04:35:42;19.90;99.90
68385;DHT22;55336;43.062;25.626;2022-07-17T04:38:08;20.20;99.90
68385;DHT22;55336;43.062;25.626;2022-07-17T04:40:34;20.60;97.20
68385;DHT22;55336;43.062;25.626;2022-07-17T04:43:01;20.80;99.90
68385;DHT22;55336;43.062;25.626;2022-07-17T04:45:27;21.00;99.90
68385;DHT22;55336;43.062;25.626;2022-07-17T04:47:53;21.20;99.90
68385;DHT22;55336;43.062;25.626;2022-07-17T04:50:21;21.60;99.70
68385;DHT22;55336;43.062;25.626;2022-07-17T04:52:47;22.00;93.90
68385;DHT22;55336;43.062;25.626;2022-07-17T04:55:13;22.40;85.40
68385;DHT22;55336;43.062;25.626;2022-07-17T04:57:39;22.90;79.70
68385;DHT22;55336;43.062;25.626;2022-07-17T05:00:05;23.30;79.50
68385;DHT22;55336;43.062;25.626;2022-07-17T05:02:32;23.50;74.40
68385;DHT22;55336;43.062;25.626;2022-07-17T05:04:57;23.70;76.50
68385;DHT22;55336;43.062;25.626;2022-07-17T05:07:23;24.00;71.40
68385;DHT22;55336;43.062;25.626;2022-07-17T05:09:49;24.30;71.50
68385;DHT22;55336;43.062;25.626;2022-07-17T05:12:15;24.60;64.40
68385;DHT22;55336;43.062;25.626;2022-07-17T05:14:41;24.70;66.70
68385;DHT22;55336;43.062;25.626;2022-07-17T05:17:07;24.90;63.70
68385;DHT22;55336;43.062;25.626;2022-07-17T05:19:32;25.20;58.80
68385;DHT22;55336;43.062;25.626;2022-07-17T05:21:58;25.20;58.00
68385;DHT22;55336;43.062;25.626;2022-07-17T05:24:24;25.40;61.20
68385;DHT22;55336;43.062;25.626;2022-07-17T05:26:50;25.70;57.10
68385;DHT22;55336;43.062;25.626;2022-07-17T05:29:16;25.80;55.70
68385;DHT22;55336;43.062;25.626;2022-07-17T05:31:45;26.00;54.00
68385;DHT22;55336;43.062;25.626;2022-07-17T05:34:11;26.10;54.00
68385;DHT22;55336;43.062;25.626;2022-07-17T05:36:36;26.30;55.50
68385;DHT22;55336;43.062;25.626;2022-07-17T05:39:02;26.60;54.80
68385;DHT22;55336;43.062;25.626;2022-07-17T05:41:28;26.90;54.60
68385;DHT22;55336;43.062;25.626;2022-07-17T05:43:54;27.30;50.90
68385;DHT22;55336;43.062;25.626;2022-07-17T05:46:20;27.50;48.80
68385;DHT22;55336;43.062;25.626;2022-07-17T05:48:46;27.30;48.90
68385;DHT22;55336;43.062;25.626;2022-07-17T05:51:12;27.60;48.40
68385;DHT22;55336;43.062;25.626;2022-07-17T05:53:40;27.90;47.80
68385;DHT22;55336;43.062;25.626;2022-07-17T05:56:06;28.00;45.70
68385;DHT22;55336;43.062;25.626;2022-07-17T05:58:36;27.90;46.40
68385;DHT22;55336;43.062;25.626;2022-07-17T06:01:02;28.40;47.80
68385;DHT22;55336;43.062;25.626;2022-07-17T06:03:28;28.70;45.70
68385;DHT22;55336;43.062;25.626;2022-07-17T06:05:54;28.90;44.20
68385;DHT22;55336;43.062;25.626;2022-07-17T06:08:21;29.10;43.80
68385;DHT22;55336;43.062;25.626;2022-07-17T06:10:47;29.20;44.50
68385;DHT22;55336;43.062;25.626;2022-07-17T06:13:15;28.90;47.30
68385;DHT22;55336;43.062;25.626;2022-07-17T06:15:44;29.10;46.00
68385;DHT22;55336;43.062;25.626;2022-07-17T06:18:11;29.30;46.40
68385;DHT22;55336;43.062;25.626;2022-07-17T06:20:37;29.60;44.90
68385;DHT22;55336;43.062;25.626;2022-07-17T06:23:02;30.10;43.90
68385;DHT22;55336;43.062;25.626;2022-07-17T06:25:29;30.10;44.60
68385;DHT22;55336;43.062;25.626;2022-07-17T06:27:54;29.50;44.20
68385;DHT22;55336;43.062;25.626;2022-07-17T06:30:20;29.10;46.80
68385;DHT22;55336;43.062;25.626;2022-07-17T06:32:46;29.10;46.20
68385;DHT22;55336;43.062;25.626;2022-07-17T06:35:12;29.10;46.60
68385;DHT22;55336;43.062;25.626;2022-07-17T06:37:38;29.40;46.90
68385;DHT22;55336;43.062;25.626;2022-07-17T06:40:06;29.30;45.60
68385;DHT22;55336;43.062;25.626;2022-07-17T06:42:32;29.60;45.00
68385;DHT22;55336;43.062;25.626;2022-07-17T06:44:58;29.00;44.80
68385;DHT22;55336;43.062;25.626;2022-07-17T06:47:24;29.40;44.40
68385;DHT22;55336;43.062;25.626;2022-07-17T06:49:50;29.90;43.10
68385;DHT22;55336;43.062;25.626;2022-07-17T06:52:15;30.00;44.70
68385;DHT22;55336;43.062;25.626;2022-07-17T06:54:41;29.70;44.70
68385;DHT22;55336;43.062;25.626;2022-07-17T06:57:07;29.90;43.90
68385;DHT22;55336;43.062;25.626;2022-07-17T06:59:33;30.10;44.40
68385;DHT22;55336;43.062;25.626;2022-07-17T07:01:59;29.80;44.60
68385;DHT22;55336;43.062;25.626;2022-07-17T07:04:25;30.50;43.50
68385;DHT22;55336;43.062;25.626;2022-07-17T07:06:53;29.70;42.70
68385;DHT22;55336;43.062;25.626;2022-07-17T07:09:20;30.10;44.60
68385;DHT22;55336;43.062;25.626;2022-07-17T07:11:45;30.50;42.20
68385;DHT22;55336;43.062;25.626;2022-07-17T07:14:11;30.80;42.30
68385;DHT22;55336;43.062;25.626;2022-07-17T07:16:37;31.10;41.20
68385;DHT22;55336;43.062;25.626;2022-07-17T07:19:05;31.00;42.40
68385;DHT22;55336;43.062;25.626;2022-07-17T07:21:31;30.80;40.90
68385;DHT22;55336;43.062;25.626;2022-07-17T07:23:57;30.60;41.00
68385;DHT22;55336;43.062;25.626;2022-07-17T07:26:23;30.30;40.30
68385;DHT22;55336;43.062;25.626;2022-07-17T07:28:49;30.40;42.30
68385;DHT22;55336;43.062;25.626;2022-07-17T07:31:14;30.60;41.40
68385;DHT22;55336;43.062;25.626;2022-07-17T07:33:42;30.90;40.00
68385;DHT22;55336;43.062;25.626;2022-07-17T07:36:08;31.00;39.90
68385;DHT22;55336;43.062;25.626;2022-07-17T07:38:34;30.20;40.00
68385;DHT22;55336;43.062;25.626;2022-07-17T07:41:00;31.20;40.30
68385;DHT22;55336;43.062;25.626;2022-07-17T07:43:26;31.00;39.50
68385;DHT22;55336;43.062;25.626;2022-07-17T07:45:51;31.10;39.30
68385;DHT22;55336;43.062;25.626;2022-07-17T07:48:18;30.90;40.40
68385;DHT22;55336;43.062;25.626;2022-07-17T07:50:44;30.90;38.80
68385;DHT22;55336;43.062;25.626;2022-07-17T07:53:10;31.00;40.30
68385;DHT22;55336;43.062;25.626;2022-07-17T07:55:36;31.30;39.00
68385;DHT22;55336;43.062;25.626;2022-07-17T07:58:03;31.10;39.50
68385;DHT22;55336;43.062;25.626;2022-07-17T08:00:29;30.80;39.10
68385;DHT22;55336;43.062;25.626;2022-07-17T08:02:55;31.10;38.40
68385;DHT22;55336;43.062;25.626;2022-07-17T08:05:20;31.10;38.50
68385;DHT22;55336;43.062;25.626;2022-07-17T08:07:46;31.60;36.50
68385;DHT22;55336;43.062;25.626;2022-07-17T08:10:12;31.90;36.80
68385;DHT22;55336;43.062;25.626;2022-07-17T08:12:38;31.60;35.60
68385;DHT22;55336;43.062;25.626;2022-07-17T08:15:05;32.10;36.60
68385;DHT22;55336;43.062;25.626;2022-07-17T08:17:31;31.70;34.50
68385;DHT22;55336;43.062;25.626;2022-07-17T08:19:57;31.70;35.00
68385;DHT22;55336;43.062;25.626;2022-07-17T08:22:23;32.50;34.00
68385;DHT22;55336;43.062;25.626;2022-07-17T08:24:49;32.90;34.20
68385;DHT22;55336;43.062;25.626;2022-07-17T08:27:16;33.30;30.70
68385;DHT22;55336;43.062;25.626;2022-07-17T08:29:42;33.00;31.60
68385;DHT22;55336;43.062;25.626;2022-07-17T08:32:08;32.40;31.20
68385;DHT22;55336;43.062;25.626;2022-07-17T08:34:33;32.30;30.90
68385;DHT22;55336;43.062;25.626;2022-07-17T08:37:00;31.90;31.50
68385;DHT22;55336;43.062;25.626;2022-07-17T08:39:26;31.90;31.30
68385;DHT22;55336;43.062;25.626;2022-07-17T08:41:52;32.60;29.00
68385;DHT22;55336;43.062;25.626;2022-07-17T08:44:18;32.90;26.40
68385;DHT22;55336;43.062;25.626;2022-07-17T08:46:44;33.30;26.40
68385;DHT22;55336;43.062;25.626;2022-07-17T08:49:10;32.40;27.60
68385;DHT22;55336;43.062;25.626;2022-07-17T08:51:37;33.10;27.60
68385;DHT22;55336;43.062;25.626;2022-07-17T08:54:03;32.70;27.60
68385;DHT22;55336;43.062;25.626;2022-07-17T08:56:29;32.70;26.70
68385;DHT22;55336;43.062;25.626;2022-07-17T08:58:55;33.00;27.40
68385;DHT22;55336;43.062;25.626;2022-07-17T09:01:23;33.30;26.80
68385;DHT22;55336;43.062;25.626;2022-07-17T09:04:00;32.40;28.50
68385;DHT22;55336;43.062;25.626;2022-07-17T09:06:30;33.50;26.10
68385;DHT22;55336;43.062;25.626;2022-07-17T09:09:07;34.20;25.20
68385;DHT22;55336;43.062;25.626;2022-07-17T09:11:43;34.70;25.00
68385;DHT22;55336;43.062;25.626;2022-07-17T09:14:09;34.20;25.30
68385;DHT22;55336;43.062;25.626;2022-07-17T09:16:35;33.80;25.90
68385;DHT22;55336;43.062;25.626;2022-07-17T09:19:01;33.50;26.40
68385;DHT22;55336;43.062;25.626;2022-07-17T09:21:29;33.70;24.90
68385;DHT22;55336;43.062;25.626;2022-07-17T09:23:58;34.60;23.30
68385;DHT22;55336;43.062;25.626;2022-07-17T09:26:24;34.00;24.30
68385;DHT22;55336;43.062;25.626;2022-07-17T09:28:50;34.10;23.90
68385;DHT22;55336;43.062;25.626;2022-07-17T09:31:26;34.60;22.60
68385;DHT22;55336;43.062;25.626;2022-07-17T09:33:52;34.70;24.10
68385;DHT22;55336;43.062;25.626;2022-07-17T09:36:17;34.50;23.30
68385;DHT22;55336;43.062;25.626;2022-07-17T09:38:43;34.60;24.10
68385;DHT22;55336;43.062;25.626;2022-07-17T09:41:17;34.60;24.80
68385;DHT22;55336;43.062;25.626;2022-07-17T09:43:48;34.40;25.00
68385;DHT22;55336;43.062;25.626;2022-07-17T09:46:17;34.40;25.30
68385;DHT22;55336;43.062;25.626;2022-07-17T09:48:44;33.90;25.50
68385;DHT22;55336;43.062;25.626;2022-07-17T09:51:17;33.90;24.60
68385;DHT22;55336;43.062;25.626;2022-07-17T09:53:47;34.10;24.70
68385;DHT22;55336;43.062;25.626;2022-07-17T09:56:14;34.50;23.20
68385;DHT22;55336;43.062;25.626;2022-07-17T09:58:40;34.90;22.40
68385;DHT22;55336;43.062;25.626;2022-07-17T10:01:07;35.40;21.60
68385;DHT22;55336;43.062;25.626;2022-07-17T10:03:34;35.20;22.30
68385;DHT22;55336;43.062;25.626;2022-07-17T10:06:00;34.70;20.70
68385;DHT22;55336;43.062;25.626;2022-07-17T10:08:27;35.10;20.80
68385;DHT22;55336;43.062;25.626;2022-07-17T10:10:53;35.60;19.60
68385;DHT22;55336;43.062;25.626;2022-07-17T10:13:21;36.00;19.40
68385;DHT22;55336;43.062;25.626;2022-07-17T10:15:47;36.60;20.50
68385;DHT22;55336;43.062;25.626;2022-07-17T10:18:13;35.90;20.40
68385;DHT22;55336;43.062;25.626;2022-07-17T10:20:40;36.30;19.70
68385;DHT22;55336;43.062;25.626;2022-07-17T10:23:12;36.10;20.60
68385;DHT22;55336;43.062;25.626;2022-07-17T10:25:38;35.60;23.00
68385;DHT22;55336;43.062;25.626;2022-07-17T10:28:04;35.90;21.50
68385;DHT22;55336;43.062;25.626;2022-07-17T10:30:30;35.80;22.10
68385;DHT22;55336;43.062;25.626;2022-07-17T10:32:58;35.80;20.50
68385;DHT22;55336;43.062;25.626;2022-07-17T10:35:24;36.00;19.90
68385;DHT22;55336;43.062;25.626;2022-07-17T10:37:50;35.30;22.20
68385;DHT22;55336;43.062;25.626;2022-07-17T10:40:17;35.80;20.00
68385;DHT22;55336;43.062;25.626;2022-07-17T10:48:02;34.60;21.70
68385;DHT22;55336;43.062;25.626;2022-07-17T10:50:38;34.70;21.10
68385;DHT22;55336;43.062;25.626;2022-07-17T10:53:09;34.60;21.60
68385;DHT22;55336;43.062;25.626;2022-07-17T10:55:35;35.10;21.60
68385;DHT22;55336;43.062;25.626;2022-07-17T10:58:02;35.40;22.40
68385;DHT22;55336;43.062;25.626;2022-07-17T11:00:28;35.00;21.60
68385;DHT22;55336;43.062;25.626;2022-07-17T11:02:54;34.60;22.30
68385;DHT22;55336;43.062;25.626;2022-07-17T11:05:20;34.90;20.30
68385;DHT22;55336;43.062;25.626;2022-07-17T11:10:15;34.80;21.50
68385;DHT22;55336;43.062;25.626;2022-07-17T11:12:41;34.60;24.60
68385;DHT22;55336;43.062;25.626;2022-07-17T11:15:07;35.20;21.80
68385;DHT22;55336;43.062;25.626;2022-07-17T11:17:33;35.20;20.80
68385;DHT22;55336;43.062;25.626;2022-07-17T11:19:59;35.70;21.00
68385;DHT22;55336;43.062;25.626;2022-07-17T11:22:25;36.10;18.10
68385;DHT22;55336;43.062;25.626;2022-07-17T11:24:52;36.20;19.10
68385;DHT22;55336;43.062;25.626;2022-07-17T11:27:19;35.20;20.90
68385;DHT22;55336;43.062;25.626;2022-07-17T11:29:46;35.10;19.20
68385;DHT22;55336;43.062;25.626;2022-07-17T11:32:12;35.90;17.80
68385;DHT22;55336;43.062;25.626;2022-07-17T11:34:38;35.60;18.20
68385;DHT22;55336;43.062;25.626;2022-07-17T11:37:05;35.50;17.80
68385;DHT22;55336;43.062;25.626;2022-07-17T11:39:44;35.20;18.30
68385;DHT22;55336;43.062;25.626;2022-07-17T11:42:15;35.50;18.40
68385;DHT22;55336;43.062;25.626;2022-07-17T11:44:42;35.20;18.50
68385;DHT22;55336;43.062;25.626;2022-07-17T11:47:09;35.30;18.60
68385;DHT22;55336;43.062;25.626;2022-07-17T11:49:36;34.90;18.40
68385;DHT22;55336;43.062;25.626;2022-07-17T11:52:09;34.20;18.50
68385;DHT22;55336;43.062;25.626;2022-07-17T11:54:52;33.40;20.30
68385;DHT22;55336;43.062;25.626;2022-07-17T11:57:19;34.50;19.00
68385;DHT22;55336;43.062;25.626;2022-07-17T11:59:48;35.20;19.10
68385;DHT22;55336;43.062;25.626;2022-07-17T12:02:15;34.90;20.00
68385;DHT22;55336;43.062;25.626;2022-07-17T12:04:49;34.40;19.30
68385;DHT22;55336;43.062;25.626;2022-07-17T12:07:16;34.10;21.30
68385;DHT22;55336;43.062;25.626;2022-07-17T12:09:42;34.40;21.30
68385;DHT22;55336;43.062;25.626;2022-07-17T12:12:17;34.90;19.80
68385;DHT22;55336;43.062;25.626;2022-07-17T12:14:46;35.30;19.30
68385;DHT22;55336;43.062;25.626;2022-07-17T12:17:15;35.10;19.40
68385;DHT22;55336;43.062;25.626;2022-07-17T12:19:41;34.50;19.50
68385;DHT22;55336;43.062;25.626;2022-07-17T12:22:07;35.10;19.70
68385;DHT22;55336;43.062;25.626;2022-07-17T12:24:40;36.00;16.80
68385;DHT22;55336;43.062;25.626;2022-07-17T12:27:09;35.20;18.40
68385;DHT22;55336;43.062;25.626;2022-07-17T12:29:35;34.90;18.30
68385;DHT22;55336;43.062;25.626;2022-07-17T12:34:32;34.90;18.80
68385;DHT22;55336;43.062;25.626;2022-07-17T12:36:58;35.10;20.30
68385;DHT22;55336;43.062;25.626;2022-07-17T12:39:24;34.30;19.70
68385;DHT22;55336;43.062;25.626;2022-07-17T12:41:50;33.80;20.80
68385;DHT22;55336;43.062;25.626;2022-07-17T12:44:16;34.00;21.10
68385;DHT22;55336;43.062;25.626;2022-07-17T12:46:42;33.40;22.90
68385;DHT22;55336;43.062;25.626;2022-07-17T12:49:08;33.10;22.00
68385;DHT22;55336;43.062;25.626;2022-07-17T12:51:35;33.00;21.90
68385;DHT22;55336;43.062;25.626;2022-07-17T12:54:00;32.90;22.30
68385;DHT22;55336;43.062;25.626;2022-07-17T12:56:26;33.20;22.40
68385;DHT22;55336;43.062;25.626;2022-07-17T12:58:53;34.00;21.90
68385;DHT22;55336;43.062;25.626;2022-07-17T13:01:18;34.00;21.30
68385;DHT22;55336;43.062;25.626;2022-07-17T13:03:44;33.80;21.40
68385;DHT22;55336;43.062;25.626;2022-07-17T13:06:10;34.50;20.50
68385;DHT22;55336;43.062;25.626;2022-07-17T13:08:36;35.40;18.50
68385;DHT22;55336;43.062;25.626;2022-07-17T13:11:02;35.90;18.10
68385;DHT22;55336;43.062;25.626;2022-07-17T13:13:28;36.20;18.00
68385;DHT22;55336;43.062;25.626;2022-07-17T13:15:55;36.30;19.30
68385;DHT22;55336;43.062;25.626;2022-07-17T13:18:21;36.20;17.70
68385;DHT22;55336;43.062;25.626;2022-07-17T13:20:47;36.20;17.90
68385;DHT22;55336;43.062;25.626;2022-07-17T13:23:13;36.10;18.40
68385;DHT22;55336;43.062;25.626;2022-07-17T13:25:39;36.40;17.60
68385;DHT22;55336;43.062;25.626;2022-07-17T13:28:05;36.70;17.50
68385;DHT22;55336;43.062;25.626;2022-07-17T13:30:32;36.60;16.80
68385;DHT22;55336;43.062;25.626;2022-07-17T13:32:58;37.00;19.20
68385;DHT22;55336;43.062;25.626;2022-07-17T13:35:25;37.00;18.80
68385;DHT22;55336;43.062;25.626;2022-07-17T13:37:51;36.60;19.10
68385;DHT22;55336;43.062;25.626;2022-07-17T13:40:16;36.70;17.20
68385;DHT22;55336;43.062;25.626;2022-07-17T13:42:46;36.70;17.60
68385;DHT22;55336;43.062;25.626;2022-07-17T13:45:12;37.30;18.70
68385;DHT22;55336;43.062;25.626;2022-07-17T13:47:38;37.40;18.80
68385;DHT22;55336;43.062;25.626;2022-07-17T13:50:04;36.90;19.90
68385;DHT22;55336;43.062;25.626;2022-07-17T13:52:30;35.40;19.90
68385;DHT22;55336;43.062;25.626;2022-07-17T13:54:56;34.80;20.80
68385;DHT22;55336;43.062;25.626;2022-07-17T13:57:22;35.20;21.90
68385;DHT22;55336;43.062;25.626;2022-07-17T13:59:48;35.00;21.60
68385;DHT22;55336;43.062;25.626;2022-07-17T14:02:15;34.50;21.70
68385;DHT22;55336;43.062;25.626;2022-07-17T14:04:41;35.00;21.30
68385;DHT22;55336;43.062;25.626;2022-07-17T14:07:07;35.50;21.50
68385;DHT22;55336;43.062;25.626;2022-07-17T14:09:33;36.00;21.60
68385;DHT22;55336;43.062;25.626;2022-07-17T14:11:58;35.90;20.70
68385;DHT22;55336;43.062;25.626;2022-07-17T14:14:24;35.30;21.90
68385;DHT22;55336;43.062;25.626;2022-07-17T14:16:51;35.50;22.50
68385;DHT22;55336;43.062;25.626;2022-07-17T14:19:17;35.80;20.80
68385;DHT22;55336;43.062;25.626;2022-07-17T14:21:43;36.00;20.90
68385;DHT22;55336;43.062;25.626;2022-07-17T14:24:09;35.80;22.00
68385;DHT22;55336;43.062;25.626;2022-07-17T14:26:35;36.20;20.50
68385;DHT22;55336;43.062;25.626;2022-07-17T14:29:02;35.70;19.80
68385;DHT22;55336;43.062;25.626;2022-07-17T14:31:28;35.70;21.80
68385;DHT22;55336;43.062;25.626;2022-07-17T14:33:54;35.90;22.10
68385;DHT22;55336;43.062;25.626;2022-07-17T14:36:20;35.00;24.00
68385;DHT22;55336;43.062;25.626;2022-07-17T14:38:46;35.40;22.30
68385;DHT22;55336;43.062;25.626;2022-07-17T14:41:11;35.60;20.00
68385;DHT22;55336;43.062;25.626;2022-07-17T14:43:37;36.00;19.90
68385;DHT22;55336;43.062;25.626;2022-07-17T14:46:03;36.50;18.30
68385;DHT22;55336;43.062;25.626;2022-07-17T14:48:30;35.00;20.60
68385;DHT22;55336;43.062;25.626;2022-07-17T14:50:56;34.20;22.30
68385;DHT22;55336;43.062;25.626;2022-07-17T14:53:22;34.30;22.40
68385;DHT22;55336;43.062;25.626;2022-07-17T14:55:50;34.30;21.80
68385;DHT22;55336;43.062;25.626;2022-07-17T14:58:16;34.60;20.40
68385;DHT22;55336;43.062;25.626;2022-07-17T15:00:42;34.50;21.40
68385;DHT22;55336;43.062;25.626;2022-07-17T15:03:07;34.60;19.70
68385;DHT22;55336;43.062;25.626;2022-07-17T15:05:36;34.80;18.90
68385;DHT22;55336;43.062;25.626;2022-07-17T15:08:01;34.80;18.80
68385;DHT22;55336;43.062;25.626;2022-07-17T15:10:27;35.20;18.30
68385;DHT22;55336;43.062;25.626;2022-07-17T15:12:53;35.30;18.70
68385;DHT22;55336;43.062;25.626;2022-07-17T15:15:19;35.00;19.20
68385;DHT22;55336;43.062;25.626;2022-07-17T15:17:45;35.30;17.50
68385;DHT22;55336;43.062;25.626;2022-07-17T15:20:11;35.90;17.10